createdAt,value
2022-12-18T00:00:04.403Z,86.10
2022-12-18T00:01:04.511Z,86.10
2022-12-18T00:02:04.766Z,86.07
2022-12-18T00:03:04.833Z,85.95
2022-12-18T00:04:05.014Z,85.86
2022-12-18T00:05:05.003Z,85.78
2022-12-18T00:06:05.149Z,85.70
2022-12-18T00:07:05.229Z,85.61
2022-12-18T00:08:09.533Z,85.51
2022-12-18T00:09:05.549Z,85.42
2022-12-18T00:10:05.641Z,85.35
2022-12-18T00:11:07.064Z,85.31
2022-12-18T00:13:09.943Z,85.34
2022-12-18T00:14:06.174Z,85.41
2022-12-18T00:15:06.299Z,85.54
2022-12-18T00:16:06.473Z,85.73
2022-12-18T00:17:06.567Z,85.78
2022-12-18T00:18:06.697Z,85.84
2022-12-18T00:19:06.885Z,85.86
2022-12-18T00:20:06.926Z,85.82
2022-12-18T00:21:07.075Z,85.85
2022-12-18T00:22:07.229Z,85.90
2022-12-18T00:23:07.386Z,85.94
2022-12-18T00:24:07.516Z,86.11
2022-12-18T00:25:07.602Z,86.28
2022-12-18T00:26:07.742Z,86.27
2022-12-18T00:27:07.895Z,86.26
2022-12-18T00:28:08.056Z,86.21
2022-12-18T00:29:08.176Z,86.15
2022-12-18T00:30:08.272Z,86.01
2022-12-18T00:31:08.467Z,85.89
2022-12-18T00:32:08.514Z,85.67
2022-12-18T00:33:08.662Z,85.54
2022-12-18T00:34:08.831Z,85.50
2022-12-18T00:35:08.900Z,85.50
2022-12-18T00:36:09.013Z,85.51
2022-12-18T00:37:09.122Z,85.47
2022-12-18T00:38:09.258Z,85.43
2022-12-18T00:39:09.510Z,85.31
2022-12-18T00:40:09.548Z,85.20
2022-12-18T00:41:09.691Z,85.06
2022-12-18T00:42:09.812Z,84.95
2022-12-18T00:43:09.907Z,84.88
2022-12-18T00:44:10.070Z,84.83
2022-12-18T00:45:13.002Z,84.84
2022-12-18T00:46:10.317Z,84.90
2022-12-18T00:47:11.031Z,84.94
2022-12-18T00:48:10.506Z,84.92
2022-12-18T00:49:10.785Z,84.89
2022-12-18T00:50:10.776Z,84.87
2022-12-18T00:51:10.874Z,84.91
2022-12-18T00:52:11.033Z,84.95
2022-12-18T00:53:11.133Z,84.92
2022-12-18T00:54:11.272Z,84.84
2022-12-18T00:55:11.431Z,84.84
2022-12-18T00:56:11.492Z,84.82
2022-12-18T00:57:11.601Z,84.86
2022-12-18T00:58:11.711Z,84.85
2022-12-18T00:59:11.948Z,84.85
2022-12-18T01:00:11.960Z,84.89
2022-12-18T01:01:12.110Z,84.87
2022-12-18T01:02:12.234Z,84.87
2022-12-18T01:03:12.345Z,84.85
2022-12-18T01:04:12.446Z,84.80
2022-12-18T01:05:12.512Z,84.74
2022-12-18T01:06:12.623Z,84.81
2022-12-18T01:07:12.768Z,84.88
2022-12-18T01:08:12.913Z,84.91
2022-12-18T01:09:13.056Z,84.94
2022-12-18T01:10:13.176Z,84.94
2022-12-18T01:11:13.270Z,84.90
2022-12-18T01:12:13.405Z,84.87
2022-12-18T01:13:13.555Z,84.89
2022-12-18T01:14:13.721Z,84.90
2022-12-18T01:15:13.811Z,84.87
2022-12-18T01:16:13.939Z,84.80
2022-12-18T01:17:14.034Z,84.76
2022-12-18T01:18:14.163Z,84.70
2022-12-18T01:19:14.872Z,84.65
2022-12-18T01:20:14.455Z,84.59
2022-12-18T01:21:14.592Z,84.48
2022-12-18T01:22:14.741Z,84.38
2022-12-18T01:23:14.891Z,84.37
2022-12-18T01:24:15.113Z,84.43
2022-12-18T01:25:15.141Z,84.54
2022-12-18T01:26:15.292Z,84.62
2022-12-18T01:27:15.428Z,84.69
2022-12-18T01:28:15.569Z,84.69
2022-12-18T01:29:15.853Z,84.72
2022-12-18T01:30:15.841Z,84.75
2022-12-18T01:31:16.026Z,84.74
2022-12-18T01:32:16.068Z,84.70
2022-12-18T01:33:16.157Z,84.67
2022-12-18T01:34:16.337Z,84.60
2022-12-18T01:35:16.424Z,84.54
2022-12-18T01:36:16.525Z,84.47
2022-12-18T01:37:16.629Z,84.42
2022-12-18T01:38:16.732Z,84.39
2022-12-18T01:39:16.835Z,84.31
2022-12-18T01:40:16.948Z,84.30
2022-12-18T01:41:17.035Z,84.24
2022-12-18T01:42:17.183Z,84.21
2022-12-18T01:43:17.274Z,84.16
2022-12-18T01:44:17.384Z,84.13
2022-12-18T01:45:17.499Z,84.09
2022-12-18T01:46:17.704Z,84.05
2022-12-18T01:47:17.721Z,84.00
2022-12-18T01:48:17.959Z,83.97
2022-12-18T01:49:18.022Z,83.95
2022-12-18T01:50:18.094Z,83.92
2022-12-18T01:51:18.214Z,83.93
2022-12-18T01:52:18.387Z,83.91
2022-12-18T01:53:18.440Z,83.85
2022-12-18T01:54:18.590Z,83.84
2022-12-18T01:55:18.670Z,83.76
2022-12-18T01:56:18.810Z,83.68
2022-12-18T01:57:18.965Z,83.57
2022-12-18T01:58:19.092Z,83.48
2022-12-18T01:59:19.240Z,83.39
2022-12-18T02:00:19.325Z,83.39
2022-12-18T02:01:19.547Z,83.38
2022-12-18T02:02:19.719Z,83.45
2022-12-18T02:03:19.785Z,83.45
2022-12-18T02:04:19.950Z,83.47
2022-12-18T02:05:19.988Z,83.47
2022-12-18T02:06:20.096Z,83.49
2022-12-18T02:07:20.184Z,83.51
2022-12-18T02:08:20.284Z,83.49
2022-12-18T02:09:20.424Z,83.46
2022-12-18T02:10:20.513Z,83.47
2022-12-18T02:11:20.611Z,83.51
2022-12-18T02:12:20.717Z,83.56
2022-12-18T02:13:20.867Z,83.61
2022-12-18T02:14:21.083Z,83.61
2022-12-18T02:15:21.187Z,83.55
2022-12-18T02:16:21.329Z,83.52
2022-12-18T02:17:21.418Z,83.53
2022-12-18T02:18:21.500Z,83.57
2022-12-18T02:19:21.690Z,83.53
2022-12-18T02:20:21.750Z,83.48
2022-12-18T02:21:21.845Z,83.45
2022-12-18T02:22:21.945Z,83.46
2022-12-18T02:23:22.051Z,83.47
2022-12-18T02:24:22.253Z,83.48
2022-12-18T02:25:22.318Z,83.45
2022-12-18T02:26:22.427Z,83.41
2022-12-18T02:27:22.582Z,83.46
2022-12-18T02:28:22.675Z,83.47
2022-12-18T02:29:22.808Z,83.50
2022-12-18T02:30:22.970Z,83.55
2022-12-18T02:31:23.041Z,83.53
2022-12-18T02:32:23.201Z,83.44
2022-12-18T02:33:23.307Z,83.36
2022-12-18T02:34:23.446Z,83.32
2022-12-18T02:35:23.565Z,83.29
2022-12-18T02:36:23.678Z,83.33
2022-12-18T02:37:23.773Z,83.43
2022-12-18T02:38:23.873Z,83.45
2022-12-18T02:39:24.154Z,83.50
2022-12-18T02:40:24.170Z,83.60
2022-12-18T02:41:24.291Z,83.69
2022-12-18T02:42:24.414Z,83.76
2022-12-18T02:43:24.514Z,83.79
2022-12-18T02:44:24.674Z,83.80
2022-12-18T02:45:24.760Z,83.78
2022-12-18T02:46:24.911Z,83.78
2022-12-18T02:47:25.001Z,83.88
2022-12-18T02:48:25.122Z,83.93
2022-12-18T02:49:25.289Z,84.08
2022-12-18T02:50:25.383Z,84.09
2022-12-18T02:51:25.492Z,84.04
2022-12-18T02:52:25.588Z,84.05
2022-12-18T02:53:25.707Z,84.02
2022-12-18T02:54:25.887Z,84.03
2022-12-18T02:55:26.001Z,84.02
2022-12-18T02:56:26.102Z,84.01
2022-12-18T02:57:26.246Z,84.04
2022-12-18T02:58:26.345Z,84.06
2022-12-18T02:59:26.575Z,84.15
2022-12-18T03:00:26.614Z,84.16
2022-12-18T03:01:26.921Z,84.30
2022-12-18T03:02:27.056Z,84.38
2022-12-18T03:03:27.099Z,84.33
2022-12-18T03:04:27.237Z,84.34
2022-12-18T03:05:27.301Z,84.32
2022-12-18T03:06:27.402Z,84.29
2022-12-18T03:07:27.558Z,84.26
2022-12-18T03:08:27.641Z,84.25
2022-12-18T03:09:27.812Z,84.22
2022-12-18T03:10:27.910Z,84.17
2022-12-18T03:11:28.081Z,84.10
2022-12-18T03:12:28.168Z,84.05
2022-12-18T03:13:28.324Z,84.04
2022-12-18T03:14:28.501Z,84.00
2022-12-18T03:15:28.591Z,83.99
2022-12-18T03:16:28.781Z,84.13
2022-12-18T03:17:28.905Z,84.26
2022-12-18T03:18:28.989Z,84.30
2022-12-18T03:19:29.696Z,84.30
2022-12-18T03:20:29.259Z,84.36
2022-12-18T03:21:29.409Z,84.40
2022-12-18T03:22:29.572Z,84.41
2022-12-18T03:23:29.656Z,84.50
2022-12-18T03:24:29.827Z,84.57
2022-12-18T03:25:29.926Z,84.55
2022-12-18T03:26:30.064Z,84.51
2022-12-18T03:27:30.216Z,84.43
2022-12-18T03:28:30.312Z,84.38
2022-12-18T03:29:30.490Z,84.33
2022-12-18T03:30:30.636Z,84.30
2022-12-18T03:31:30.756Z,84.26
2022-12-18T03:32:30.869Z,84.30
2022-12-18T03:33:30.972Z,84.30
2022-12-18T03:34:31.203Z,84.27
2022-12-18T03:35:31.272Z,84.23
2022-12-18T03:36:31.382Z,84.18
2022-12-18T03:37:31.494Z,84.13
2022-12-18T03:38:31.630Z,84.13
2022-12-18T03:39:31.919Z,84.20
2022-12-18T03:40:31.914Z,84.31
2022-12-18T03:41:32.072Z,84.40
2022-12-18T03:42:32.181Z,84.42
2022-12-18T03:43:32.330Z,84.50
2022-12-18T03:44:32.537Z,84.56
2022-12-18T03:45:32.527Z,84.60
2022-12-18T03:46:32.678Z,84.59
2022-12-18T03:47:32.763Z,84.58
2022-12-18T03:48:32.897Z,84.54
2022-12-18T03:49:33.047Z,84.46
2022-12-18T03:50:33.213Z,84.42
2022-12-18T03:51:33.255Z,84.45
2022-12-18T03:52:33.406Z,84.50
2022-12-18T03:53:33.539Z,84.63
2022-12-18T03:54:33.734Z,84.71
2022-12-18T03:55:33.787Z,84.69
2022-12-18T03:56:33.934Z,84.71
2022-12-18T03:57:34.098Z,84.72
2022-12-18T03:58:34.160Z,84.72
2022-12-18T03:59:34.324Z,84.73
2022-12-18T04:00:34.399Z,84.66
2022-12-18T04:01:34.652Z,84.67
2022-12-18T04:02:34.740Z,84.63
2022-12-18T04:03:36.378Z,84.62
2022-12-18T04:04:35.001Z,84.63
2022-12-18T04:05:35.010Z,84.64
2022-12-18T04:06:35.109Z,84.62
2022-12-18T04:07:35.262Z,84.60
2022-12-18T04:08:35.399Z,84.59
2022-12-18T04:09:35.598Z,84.56
2022-12-18T04:10:35.697Z,84.58
2022-12-18T04:11:35.823Z,84.58
2022-12-18T04:12:35.947Z,84.59
2022-12-18T04:13:36.291Z,84.56
2022-12-18T04:14:36.259Z,84.55
2022-12-18T04:15:36.382Z,84.54
2022-12-18T04:16:36.520Z,84.57
2022-12-18T04:17:36.658Z,84.61
2022-12-18T04:18:36.757Z,84.60
2022-12-18T04:19:37.416Z,84.70
2022-12-18T04:20:37.034Z,84.72
2022-12-18T04:21:37.123Z,84.72
2022-12-18T04:22:37.266Z,84.71
2022-12-18T04:23:37.696Z,84.72
2022-12-18T04:24:37.559Z,84.77
2022-12-18T04:25:37.677Z,84.77
2022-12-18T04:26:37.751Z,84.84
2022-12-18T04:27:37.906Z,84.81
2022-12-18T04:28:38.041Z,84.72
2022-12-18T04:29:38.200Z,84.72
2022-12-18T04:30:38.299Z,84.62
2022-12-18T04:31:38.383Z,84.53
2022-12-18T04:32:38.552Z,84.49
2022-12-18T04:33:39.071Z,84.48
2022-12-18T04:34:38.839Z,84.52
2022-12-18T04:35:38.888Z,84.57
2022-12-18T04:36:39.011Z,84.66
2022-12-18T04:37:39.148Z,84.66
2022-12-18T04:38:39.317Z,84.65
2022-12-18T04:39:39.439Z,84.63
2022-12-18T04:40:39.557Z,84.52
2022-12-18T04:41:39.656Z,84.46
2022-12-18T04:42:39.846Z,84.42
2022-12-18T04:43:40.448Z,84.40
2022-12-18T04:44:40.104Z,84.38
2022-12-18T04:45:40.245Z,84.35
2022-12-18T04:46:40.444Z,84.30
2022-12-18T04:47:40.494Z,84.22
2022-12-18T04:48:40.604Z,84.17
2022-12-18T04:49:40.747Z,84.11
2022-12-18T04:50:40.883Z,84.09
2022-12-18T04:51:40.933Z,84.10
2022-12-18T04:52:41.094Z,84.13
2022-12-18T04:53:41.623Z,83.90
2022-12-18T04:54:41.320Z,83.76
2022-12-18T04:55:41.421Z,83.65
2022-12-18T04:56:41.510Z,83.55
2022-12-18T04:57:41.662Z,83.57
2022-12-18T04:58:41.836Z,83.56
2022-12-18T04:59:41.960Z,83.60
2022-12-18T05:00:42.074Z,83.63
2022-12-18T05:01:42.263Z,83.68
2022-12-18T05:02:42.420Z,83.71
2022-12-18T05:03:43.009Z,83.69
2022-12-18T05:04:42.599Z,83.68
2022-12-18T05:05:42.698Z,83.71
2022-12-18T05:06:42.848Z,83.73
2022-12-18T05:07:42.958Z,83.72
2022-12-18T05:08:43.057Z,83.70
2022-12-18T05:09:43.218Z,83.66
2022-12-18T05:10:43.315Z,83.72
2022-12-18T05:11:43.439Z,83.92
2022-12-18T05:12:43.508Z,84.11
2022-12-18T05:13:43.681Z,84.16
2022-12-18T05:14:43.757Z,84.22
2022-12-18T05:15:43.915Z,84.25
2022-12-18T05:16:44.084Z,84.37
2022-12-18T05:17:44.136Z,84.48
2022-12-18T05:18:45.229Z,84.63
2022-12-18T05:19:44.462Z,84.72
2022-12-18T05:20:44.542Z,84.76
2022-12-18T05:21:44.611Z,84.83
2022-12-18T05:22:44.874Z,84.87
2022-12-18T05:23:44.893Z,84.83
2022-12-18T05:24:45.022Z,84.79
2022-12-18T05:25:45.183Z,84.74
2022-12-18T05:26:45.228Z,84.73
2022-12-18T05:27:45.329Z,84.70
2022-12-18T05:28:45.487Z,84.69
2022-12-18T05:29:45.569Z,84.72
2022-12-18T05:30:45.730Z,84.78
2022-12-18T05:31:45.849Z,84.79
2022-12-18T05:32:45.976Z,84.74
2022-12-18T05:33:46.134Z,84.69
2022-12-18T05:34:46.216Z,84.66
2022-12-18T05:35:46.386Z,84.64
2022-12-18T05:36:46.496Z,84.70
2022-12-18T05:37:46.587Z,84.71
2022-12-18T05:38:46.766Z,84.73
2022-12-18T05:39:46.871Z,84.70
2022-12-18T05:40:47.054Z,84.68
2022-12-18T05:41:47.152Z,84.82
2022-12-18T05:42:47.241Z,84.94
2022-12-18T05:43:47.344Z,84.95
2022-12-18T05:44:47.497Z,84.99
2022-12-18T05:45:48.275Z,84.99
2022-12-18T05:46:47.778Z,85.08
2022-12-18T05:47:47.852Z,85.12
2022-12-18T05:48:47.990Z,85.10
2022-12-18T05:49:48.158Z,85.11
2022-12-18T05:50:48.300Z,85.08
2022-12-18T05:51:48.425Z,84.97
2022-12-18T05:52:48.518Z,84.90
2022-12-18T05:53:48.668Z,84.93
2022-12-18T05:54:48.757Z,84.98
2022-12-18T05:55:48.956Z,84.94
2022-12-18T05:56:49.178Z,84.89
2022-12-18T05:57:49.182Z,84.83
2022-12-18T05:58:49.286Z,84.78
2022-12-18T05:59:49.375Z,84.71
2022-12-18T06:00:49.536Z,84.67
2022-12-18T06:01:49.735Z,84.64
2022-12-18T06:02:49.877Z,84.69
2022-12-18T06:03:49.946Z,84.68
2022-12-18T06:04:50.028Z,84.66
2022-12-18T06:05:50.294Z,84.62
2022-12-18T06:06:50.244Z,84.60
2022-12-18T06:07:50.333Z,84.59
2022-12-18T06:08:50.514Z,84.70
2022-12-18T06:09:50.613Z,84.72
2022-12-18T06:10:50.764Z,84.70
2022-12-18T06:11:50.871Z,84.69
2022-12-18T06:12:50.977Z,84.77
2022-12-18T06:13:54.788Z,84.81
2022-12-18T06:14:52.233Z,84.83
2022-12-18T06:15:51.340Z,84.94
2022-12-18T06:16:51.419Z,84.97
2022-12-18T06:17:51.509Z,84.95
2022-12-18T06:18:51.650Z,84.94
2022-12-18T06:19:51.813Z,84.97
2022-12-18T06:20:51.949Z,84.94
2022-12-18T06:21:52.052Z,84.99
2022-12-18T06:22:52.193Z,85.04
2022-12-18T06:23:52.339Z,85.08
2022-12-18T06:24:52.501Z,85.14
2022-12-18T06:25:52.646Z,85.18
2022-12-18T06:26:52.737Z,85.14
2022-12-18T06:27:52.876Z,85.15
2022-12-18T06:28:53.035Z,85.15
2022-12-18T06:29:53.165Z,85.11
2022-12-18T06:30:53.276Z,85.08
2022-12-18T06:31:53.412Z,85.05
2022-12-18T06:32:56.615Z,85.02
2022-12-18T06:33:53.619Z,84.98
2022-12-18T06:34:53.793Z,84.93
2022-12-18T06:35:59.352Z,84.88
2022-12-18T06:36:55.053Z,84.88
2022-12-18T06:37:54.194Z,84.83
2022-12-18T06:38:54.290Z,84.76
2022-12-18T06:39:54.462Z,84.72
2022-12-18T06:40:54.559Z,84.72
2022-12-18T06:41:54.879Z,84.71
2022-12-18T06:42:54.831Z,84.73
2022-12-18T06:43:59.564Z,84.75
2022-12-18T06:44:56.099Z,84.71
2022-12-18T06:45:55.231Z,84.65
2022-12-18T06:46:55.315Z,84.59
2022-12-18T06:47:55.402Z,84.54
2022-12-18T06:48:55.530Z,84.55
2022-12-18T06:49:55.712Z,84.53
2022-12-18T06:50:55.757Z,84.64
2022-12-18T06:51:55.867Z,84.76
2022-12-18T06:52:55.994Z,84.87
2022-12-18T06:53:56.115Z,84.98
2022-12-18T06:54:56.276Z,85.18
2022-12-18T06:55:56.405Z,85.24
2022-12-18T06:56:56.515Z,85.28
2022-12-18T06:57:56.614Z,85.32
2022-12-18T06:58:56.702Z,85.36
2022-12-18T06:59:56.915Z,85.34
2022-12-18T07:00:56.997Z,85.27
2022-12-18T07:01:57.236Z,85.25
2022-12-18T07:02:57.205Z,85.26
2022-12-18T07:03:57.348Z,85.19
2022-12-18T07:04:57.524Z,85.11
2022-12-18T07:05:57.633Z,85.09
2022-12-18T07:06:57.732Z,85.08
2022-12-18T07:07:57.883Z,85.03
2022-12-18T07:08:58.033Z,84.95
2022-12-18T07:09:58.159Z,84.87
2022-12-18T07:10:58.276Z,84.82
2022-12-18T07:11:58.437Z,84.82
2022-12-18T07:12:58.560Z,84.84
2022-12-18T07:13:58.717Z,84.79
2022-12-18T07:14:58.848Z,84.88
2022-12-18T07:15:59.108Z,84.95
2022-12-18T07:16:59.112Z,84.94
2022-12-18T07:17:59.177Z,84.97
2022-12-18T07:18:59.297Z,84.98
2022-12-18T07:19:59.425Z,84.95
2022-12-18T07:20:59.556Z,84.92
2022-12-18T07:21:59.627Z,84.95
2022-12-18T07:22:59.729Z,84.95
2022-12-18T07:23:59.833Z,84.89
2022-12-18T07:24:59.933Z,84.86
2022-12-18T07:26:00.073Z,84.88
2022-12-18T07:27:00.143Z,84.91
2022-12-18T07:28:00.339Z,84.92
2022-12-18T07:29:00.432Z,84.91
2022-12-18T07:30:00.592Z,84.96
2022-12-18T07:31:00.682Z,85.07
2022-12-18T07:32:00.893Z,85.11
2022-12-18T07:33:00.941Z,85.15
2022-12-18T07:34:01.041Z,85.17
2022-12-18T07:35:01.190Z,85.13
2022-12-18T07:36:01.287Z,85.12
2022-12-18T07:37:01.420Z,85.09
2022-12-18T07:38:01.584Z,85.07
2022-12-18T07:39:01.703Z,85.06
2022-12-18T07:40:01.792Z,85.07
2022-12-18T07:41:01.933Z,85.05
2022-12-18T07:42:02.088Z,85.03
2022-12-18T07:43:02.187Z,84.98
2022-12-18T07:44:02.342Z,84.93
2022-12-18T07:45:02.478Z,84.93
2022-12-18T07:46:02.635Z,84.92
2022-12-18T07:47:04.707Z,84.90
2022-12-18T07:48:03.829Z,84.92
2022-12-18T07:49:03.005Z,84.90
2022-12-18T07:50:03.188Z,84.86
2022-12-18T07:51:03.249Z,84.77
2022-12-18T07:52:03.366Z,84.63
2022-12-18T07:53:03.466Z,84.48
2022-12-18T07:54:03.598Z,84.34
2022-12-18T07:55:03.713Z,84.25
2022-12-18T07:56:26.401Z,84.13
2022-12-18T07:57:09.915Z,84.04
2022-12-18T07:58:05.077Z,83.95
2022-12-18T07:59:04.246Z,83.88
2022-12-18T08:00:04.291Z,83.78
2022-12-18T08:01:04.433Z,83.72
2022-12-18T08:02:04.729Z,83.68
2022-12-18T08:03:04.665Z,83.65
2022-12-18T08:04:04.764Z,83.61
2022-12-18T08:05:04.911Z,83.55
2022-12-18T08:06:04.989Z,83.52
2022-12-18T08:07:05.148Z,83.42
2022-12-18T08:08:05.236Z,83.30
2022-12-18T08:09:05.398Z,83.25
2022-12-18T08:10:05.504Z,83.17
2022-12-18T08:11:05.657Z,83.10
2022-12-18T08:12:05.816Z,83.06
2022-12-18T08:13:05.908Z,83.01
2022-12-18T08:14:06.078Z,82.94
2022-12-18T08:15:06.221Z,82.88
2022-12-18T08:16:06.319Z,82.81
2022-12-18T08:17:06.443Z,82.71
2022-12-18T08:18:10.113Z,82.64
2022-12-18T08:19:07.674Z,82.61
2022-12-18T08:20:06.764Z,82.52
2022-12-18T08:21:06.884Z,82.43
2022-12-18T08:22:06.994Z,82.34
2022-12-18T08:23:07.112Z,82.15
2022-12-18T08:24:07.231Z,82.08
2022-12-18T08:25:07.330Z,82.00
2022-12-18T08:26:07.492Z,81.91
2022-12-18T08:28:08.740Z,81.71
2022-12-18T08:29:07.841Z,81.58
2022-12-18T08:30:07.944Z,81.52
2022-12-18T08:31:08.182Z,81.43
2022-12-18T08:32:08.233Z,81.36
2022-12-18T08:33:08.328Z,81.33
2022-12-18T08:34:08.559Z,81.35
2022-12-18T08:35:08.567Z,81.37
2022-12-18T08:36:08.684Z,81.36
2022-12-18T08:37:08.787Z,81.34
2022-12-18T08:38:08.897Z,81.22
2022-12-18T08:39:09.068Z,81.18
2022-12-18T08:40:09.117Z,81.11
2022-12-18T08:41:09.219Z,81.16
2022-12-18T08:42:10.376Z,81.11
2022-12-18T08:43:09.484Z,81.16
2022-12-18T08:44:09.637Z,81.06
2022-12-18T08:45:09.686Z,81.04
2022-12-18T08:46:09.816Z,80.94
2022-12-18T08:47:09.902Z,80.92
2022-12-18T08:48:09.994Z,80.77
2022-12-18T08:49:10.133Z,80.66
2022-12-18T08:50:10.232Z,80.59
2022-12-18T08:51:10.358Z,80.47
2022-12-18T08:52:10.454Z,80.26
2022-12-18T08:53:10.604Z,80.21
2022-12-18T08:54:10.740Z,80.20
2022-12-18T08:55:10.839Z,80.18
2022-12-18T08:56:10.940Z,80.16
2022-12-18T08:57:11.048Z,80.08
2022-12-18T08:58:11.148Z,79.98
2022-12-18T08:59:18.805Z,79.96
2022-12-18T09:00:12.363Z,79.92
2022-12-18T09:01:11.660Z,79.86
2022-12-18T09:02:11.894Z,79.60
2022-12-18T09:03:11.824Z,79.62
2022-12-18T09:04:11.958Z,79.60
2022-12-18T09:05:12.046Z,79.43
2022-12-18T09:06:12.174Z,79.40
2022-12-18T09:07:12.256Z,79.28
2022-12-18T09:08:12.356Z,79.26
2022-12-18T09:09:12.484Z,78.97
2022-12-18T09:10:12.607Z,79.08
2022-12-18T09:11:12.715Z,79.03
2022-12-18T09:12:12.825Z,79.05
2022-12-18T09:13:12.933Z,79.10
2022-12-18T09:14:13.275Z,78.91
2022-12-18T09:15:13.189Z,78.87
2022-12-18T09:16:13.304Z,78.61
2022-12-18T09:17:13.432Z,78.48
2022-12-18T09:18:13.588Z,78.52
2022-12-18T09:19:13.697Z,78.29
2022-12-18T09:20:13.751Z,78.25
2022-12-18T09:21:13.860Z,78.44
2022-12-18T09:22:13.970Z,78.43
2022-12-18T09:23:14.080Z,78.37
2022-12-18T09:24:14.201Z,78.21
2022-12-18T09:25:14.299Z,77.85
2022-12-18T09:26:14.450Z,77.75
2022-12-18T09:27:14.550Z,77.77
2022-12-18T09:28:14.702Z,77.74
2022-12-18T09:29:14.817Z,77.74
2022-12-18T09:30:14.950Z,77.52
2022-12-18T09:31:15.106Z,77.56
2022-12-18T09:32:20.499Z,77.53
2022-12-18T09:33:16.298Z,77.62
2022-12-18T09:34:15.426Z,77.65
2022-12-18T09:35:15.470Z,77.36
2022-12-18T09:36:15.584Z,77.37
2022-12-18T09:37:15.685Z,77.25
2022-12-18T09:38:15.804Z,77.08
2022-12-18T09:39:15.963Z,77.14
2022-12-18T09:40:16.043Z,76.76
2022-12-18T09:41:16.279Z,76.58
2022-12-18T09:42:16.354Z,76.29
2022-12-18T09:43:16.443Z,76.43
2022-12-18T09:44:16.611Z,76.27
2022-12-18T09:45:16.676Z,76.20
2022-12-18T09:46:16.836Z,76.31
2022-12-18T09:47:16.952Z,76.12
2022-12-18T09:48:17.061Z,76.19
2022-12-18T09:49:17.210Z,76.12
2022-12-18T09:50:17.630Z,76.35
2022-12-18T09:51:17.400Z,76.16
2022-12-18T09:52:17.528Z,75.83
2022-12-18T09:53:17.694Z,76.08
2022-12-18T09:54:17.868Z,75.91
2022-12-18T09:55:17.885Z,75.93
2022-12-18T09:56:18.042Z,75.72
2022-12-18T09:57:18.085Z,75.58
2022-12-18T09:58:18.200Z,75.90
2022-12-18T09:59:18.345Z,75.85
2022-12-18T10:00:18.439Z,75.97
2022-12-18T10:01:18.687Z,75.87
2022-12-18T10:02:18.783Z,75.60
2022-12-18T10:03:18.818Z,75.33
2022-12-18T10:04:18.987Z,75.18
2022-12-18T10:05:19.190Z,75.35
2022-12-18T10:06:19.214Z,75.31
2022-12-18T10:07:19.274Z,75.24
2022-12-18T10:08:19.411Z,75.37
2022-12-18T10:09:19.556Z,75.66
2022-12-18T10:10:19.605Z,75.76
2022-12-18T10:11:19.732Z,75.41
2022-12-18T10:12:19.832Z,75.49
2022-12-18T10:13:19.938Z,75.44
2022-12-18T10:14:20.134Z,75.33
2022-12-18T10:15:20.190Z,75.32
2022-12-18T10:16:20.361Z,75.06
2022-12-18T10:17:20.411Z,75.27
2022-12-18T10:18:22.243Z,75.57
2022-12-18T10:19:20.709Z,75.33
2022-12-18T10:20:20.922Z,75.41
2022-12-18T10:21:20.908Z,75.01
2022-12-18T10:22:21.030Z,74.97
2022-12-18T10:23:21.129Z,75.26
2022-12-18T10:24:21.333Z,75.41
2022-12-18T10:25:21.347Z,74.86
2022-12-18T10:26:21.469Z,74.44
2022-12-18T10:27:21.594Z,74.79
2022-12-18T10:28:21.697Z,74.57
2022-12-18T10:29:21.852Z,74.55
2022-12-18T10:30:21.946Z,74.85
2022-12-18T10:31:22.107Z,75.03
2022-12-18T10:32:22.170Z,74.86
2022-12-18T10:33:22.276Z,74.67
2022-12-18T10:34:22.426Z,74.67
2022-12-18T10:35:22.552Z,74.48
2022-12-18T10:36:22.628Z,74.47
2022-12-18T10:37:22.764Z,74.14
2022-12-18T10:38:22.893Z,73.92
2022-12-18T10:39:23.015Z,73.63
2022-12-18T10:40:23.122Z,73.85
2022-12-18T10:41:23.193Z,73.83
2022-12-18T10:42:23.302Z,74.05
2022-12-18T10:43:23.443Z,74.13
2022-12-18T10:44:23.554Z,74.28
2022-12-18T10:45:23.663Z,74.18
2022-12-18T10:46:23.881Z,74.34
2022-12-18T10:47:23.878Z,73.97
2022-12-18T10:48:23.979Z,74.01
2022-12-18T10:49:24.119Z,73.89
2022-12-18T10:50:26.191Z,73.73
2022-12-18T10:51:24.364Z,73.61
2022-12-18T10:52:24.454Z,73.87
2022-12-18T10:53:24.570Z,73.50
2022-12-18T10:54:24.719Z,73.32
2022-12-18T10:55:24.827Z,73.70
2022-12-18T10:56:24.990Z,73.40
2022-12-18T10:57:25.143Z,73.67
2022-12-18T10:58:26.944Z,73.60
2022-12-18T10:59:25.344Z,73.08
2022-12-18T11:00:25.439Z,73.03
2022-12-18T11:01:25.647Z,73.08
2022-12-18T11:02:25.881Z,73.20
2022-12-18T11:03:25.847Z,73.52
2022-12-18T11:04:25.993Z,73.18
2022-12-18T11:05:26.043Z,73.25
2022-12-18T11:06:26.383Z,73.32
2022-12-18T11:07:26.284Z,73.27
2022-12-18T11:08:26.396Z,73.13
2022-12-18T11:09:26.607Z,73.14
2022-12-18T11:10:26.624Z,72.98
2022-12-18T11:11:26.808Z,73.03
2022-12-18T11:12:26.891Z,73.18
2022-12-18T11:13:27.021Z,73.34
2022-12-18T11:14:27.130Z,73.44
2022-12-18T11:15:27.240Z,73.58
2022-12-18T11:16:27.404Z,73.44
2022-12-18T11:17:27.477Z,73.23
2022-12-18T11:18:27.645Z,73.04
2022-12-18T11:19:27.824Z,73.30
2022-12-18T11:20:27.818Z,73.15
2022-12-18T11:21:27.918Z,73.10
2022-12-18T11:22:28.035Z,73.05
2022-12-18T11:23:28.137Z,72.94
2022-12-18T11:24:28.257Z,73.07
2022-12-18T11:25:32.711Z,73.24
2022-12-18T11:26:29.508Z,73.09
2022-12-18T11:27:28.599Z,73.21
2022-12-18T11:28:28.705Z,73.23
2022-12-18T11:29:28.844Z,73.30
2022-12-18T11:30:28.980Z,73.28
2022-12-18T11:31:29.194Z,73.34
2022-12-18T11:32:29.375Z,73.36
2022-12-18T11:33:29.498Z,73.26
2022-12-18T11:34:30.386Z,72.97
2022-12-18T11:35:29.744Z,73.33
2022-12-18T11:36:29.801Z,73.24
2022-12-18T11:37:29.897Z,73.11
2022-12-18T11:38:30.033Z,73.01
2022-12-18T11:39:30.221Z,73.04
2022-12-18T11:40:30.285Z,72.83
2022-12-18T11:41:30.426Z,73.19
2022-12-18T11:42:30.526Z,73.34
2022-12-18T11:43:30.643Z,73.53
2022-12-18T11:44:30.755Z,73.41
2022-12-18T11:45:30.906Z,73.08
2022-12-18T11:46:31.052Z,72.70
2022-12-18T11:47:31.142Z,72.91
2022-12-18T11:48:31.308Z,73.09
2022-12-18T11:49:31.392Z,73.08
2022-12-18T11:50:31.573Z,72.94
2022-12-18T11:51:31.622Z,73.28
2022-12-18T11:52:31.743Z,73.05
2022-12-18T11:53:31.842Z,72.71
2022-12-18T11:54:31.966Z,73.10
2022-12-18T11:55:32.090Z,73.32
2022-12-18T11:56:32.221Z,73.42
2022-12-18T11:57:32.383Z,73.32
2022-12-18T11:58:32.489Z,73.52
2022-12-18T11:59:32.671Z,73.26
2022-12-18T12:00:32.742Z,73.17
2022-12-18T12:01:32.952Z,73.33
2022-12-18T12:02:33.190Z,73.35
2022-12-18T12:03:33.141Z,73.60
2022-12-18T12:04:33.299Z,73.69
2022-12-18T12:05:33.347Z,73.52
2022-12-18T12:06:33.533Z,73.58
2022-12-18T12:07:33.589Z,73.50
2022-12-18T12:08:33.694Z,73.57
2022-12-18T12:09:33.830Z,73.49
2022-12-18T12:10:33.955Z,73.38
2022-12-18T12:11:34.093Z,73.56
2022-12-18T12:12:34.162Z,73.40
2022-12-18T12:13:34.328Z,73.44
2022-12-18T12:14:34.414Z,73.34
2022-12-18T12:15:34.533Z,73.16
2022-12-18T12:16:34.780Z,73.27
2022-12-18T12:17:34.851Z,73.32
2022-12-18T12:18:34.874Z,73.31
2022-12-18T12:19:35.059Z,73.20
2022-12-18T12:20:36.211Z,73.50
2022-12-18T12:21:35.314Z,73.03
2022-12-18T12:22:35.381Z,72.77
2022-12-18T12:23:35.491Z,73.21
2022-12-18T12:24:35.595Z,72.93
2022-12-18T12:25:35.704Z,73.02
2022-12-18T12:26:35.839Z,73.21
2022-12-18T12:27:35.960Z,73.00
2022-12-18T12:28:36.117Z,73.00
2022-12-18T12:29:36.181Z,73.13
2022-12-18T12:30:36.327Z,72.94
2022-12-18T12:31:36.481Z,72.96
2022-12-18T12:32:36.531Z,73.07
2022-12-18T12:33:36.630Z,73.09
2022-12-18T12:34:36.730Z,73.27
2022-12-18T12:35:36.870Z,73.19
2022-12-18T12:36:36.968Z,73.24
2022-12-18T12:37:37.156Z,73.24
2022-12-18T12:38:37.210Z,73.16
2022-12-18T12:39:37.306Z,73.08
2022-12-18T12:41:00.582Z,73.11
2022-12-18T12:41:38.562Z,73.18
2022-12-18T12:42:37.651Z,73.27
2022-12-18T12:43:37.880Z,73.15
2022-12-18T12:44:37.916Z,72.92
2022-12-18T12:45:38.023Z,72.94
2022-12-18T12:46:38.177Z,73.04
2022-12-18T12:47:38.267Z,72.87
2022-12-18T12:48:38.752Z,72.78
2022-12-18T12:49:40.798Z,72.92
2022-12-18T12:50:38.596Z,73.04
2022-12-18T12:51:38.770Z,73.10
2022-12-18T12:52:38.794Z,73.10
2022-12-18T12:53:38.992Z,73.12
2022-12-18T12:54:39.047Z,73.09
2022-12-18T12:55:39.171Z,72.73